sensor_id;sensor_type;location;lat;lon;timestamp;temperature;humidity
38592;DHT22;24356;48.460;11.450;2023-07-22T00:00:49;15.70;74.10
38592;DHT22;24356;48.460;11.450;2023-07-22T00:03:15;15.60;74.30
38592;DHT22;24356;48.460;11.450;2023-07-22T00:05:42;15.60;74.30
38592;DHT22;24356;48.460;11.450;2023-07-22T00:08:07;15.60;74.40
38592;DHT22;24356;48.460;11.450;2023-07-22T00:10:33;15.50;74.40
38592;DHT22;24356;48.460;11.450;2023-07-22T00:12:58;15.50;74.40
38592;DHT22;24356;48.460;11.450;2023-07-22T00:15:24;15.40;74.40
38592;DHT22;24356;48.460;11.450;2023-07-22T00:17:51;15.40;74.70
38592;DHT22;24356;48.460;11.450;2023-07-22T00:20:17;15.40;74.60
38592;DHT22;24356;48.460;11.450;2023-07-22T00:22:42;15.30;74.70
38592;DHT22;24356;48.460;11.450;2023-07-22T00:25:11;15.30;74.60
38592;DHT22;24356;48.460;11.450;2023-07-22T00:27:42;15.20;74.70
38592;DHT22;24356;48.460;11.450;2023-07-22T00:30:08;15.20;74.80
38592;DHT22;24356;48.460;11.450;2023-07-22T00:32:34;15.20;74.70
38592;DHT22;24356;48.460;11.450;2023-07-22T00:35:05;15.10;74.90
38592;DHT22;24356;48.460;11.450;2023-07-22T00:37:32;15.10;75.10
38592;DHT22;24356;48.460;11.450;2023-07-22T00:39:58;15.10;75.00
38592;DHT22;24356;48.460;11.450;2023-07-22T00:42:24;15.00;75.00
38592;DHT22;24356;48.460;11.450;2023-07-22T00:44:49;15.00;75.00
38592;DHT22;24356;48.460;11.450;2023-07-22T00:47:16;14.90;75.10
38592;DHT22;24356;48.460;11.450;2023-07-22T00:49:41;14.90;75.10
38592;DHT22;24356;48.460;11.450;2023-07-22T00:52:07;14.90;75.10
38592;DHT22;24356;48.460;11.450;2023-07-22T00:54:33;14.80;75.20
38592;DHT22;24356;48.460;11.450;2023-07-22T00:56:59;14.80;75.10
38592;DHT22;24356;48.460;11.450;2023-07-22T00:59:25;14.80;75.20
38592;DHT22;24356;48.460;11.450;2023-07-22T01:01:50;14.80;75.20
38592;DHT22;24356;48.460;11.450;2023-07-22T01:04:19;14.70;75.30
38592;DHT22;24356;48.460;11.450;2023-07-22T01:06:45;14.70;75.30
38592;DHT22;24356;48.460;11.450;2023-07-22T01:09:11;14.70;75.30
38592;DHT22;24356;48.460;11.450;2023-07-22T01:11:36;14.60;75.50
38592;DHT22;24356;48.460;11.450;2023-07-22T01:14:02;14.60;75.40
38592;DHT22;24356;48.460;11.450;2023-07-22T01:16:29;14.60;75.50
38592;DHT22;24356;48.460;11.450;2023-07-22T01:18:55;14.60;75.50
38592;DHT22;24356;48.460;11.450;2023-07-22T01:21:23;14.50;75.40
38592;DHT22;24356;48.460;11.450;2023-07-22T01:23:49;14.50;75.40
38592;DHT22;24356;48.460;11.450;2023-07-22T01:26:15;14.50;75.60
38592;DHT22;24356;48.460;11.450;2023-07-22T01:28:41;14.50;75.60
38592;DHT22;24356;48.460;11.450;2023-07-22T01:31:07;14.40;75.60
38592;DHT22;24356;48.460;11.450;2023-07-22T01:33:32;14.40;75.60
38592;DHT22;24356;48.460;11.450;2023-07-22T01:35:59;14.30;75.60
38592;DHT22;24356;48.460;11.450;2023-07-22T01:38:25;14.30;75.70
38592;DHT22;24356;48.460;11.450;2023-07-22T01:40:51;14.30;75.70
38592;DHT22;24356;48.460;11.450;2023-07-22T01:43:17;14.30;75.70
38592;DHT22;24356;48.460;11.450;2023-07-22T01:45:42;14.20;75.70
38592;DHT22;24356;48.460;11.450;2023-07-22T01:48:08;14.20;75.70
38592;DHT22;24356;48.460;11.450;2023-07-22T01:50:34;14.20;75.70
38592;DHT22;24356;48.460;11.450;2023-07-22T01:52:59;14.10;75.70
38592;DHT22;24356;48.460;11.450;2023-07-22T01:55:25;14.10;75.70
38592;DHT22;24356;48.460;11.450;2023-07-22T01:57:51;14.10;75.90
38592;DHT22;24356;48.460;11.450;2023-07-22T02:00:16;14.00;75.90
38592;DHT22;24356;48.460;11.450;2023-07-22T02:02:42;14.00;75.90
38592;DHT22;24356;48.460;11.450;2023-07-22T02:05:09;13.90;76.00
38592;DHT22;24356;48.460;11.450;2023-07-22T02:07:35;13.90;76.00
38592;DHT22;24356;48.460;11.450;2023-07-22T02:10:01;13.90;76.00
38592;DHT22;24356;48.460;11.450;2023-07-22T02:12:27;13.80;75.90
38592;DHT22;24356;48.460;11.450;2023-07-22T02:14:52;13.80;76.00
38592;DHT22;24356;48.460;11.450;2023-07-22T02:17:18;13.80;76.00
38592;DHT22;24356;48.460;11.450;2023-07-22T02:19:43;13.80;76.00
38592;DHT22;24356;48.460;11.450;2023-07-22T02:22:09;13.70;76.10
38592;DHT22;24356;48.460;11.450;2023-07-22T02:24:35;13.70;76.10
38592;DHT22;24356;48.460;11.450;2023-07-22T02:27:00;13.70;76.10
38592;DHT22;24356;48.460;11.450;2023-07-22T02:29:26;13.60;76.20
38592;DHT22;24356;48.460;11.450;2023-07-22T02:31:52;13.60;76.10
38592;DHT22;24356;48.460;11.450;2023-07-22T02:34:17;13.60;76.20
38592;DHT22;24356;48.460;11.450;2023-07-22T02:36:43;13.60;76.20
38592;DHT22;24356;48.460;11.450;2023-07-22T02:39:10;13.50;76.30
38592;DHT22;24356;48.460;11.450;2023-07-22T02:41:39;13.50;76.30
38592;DHT22;24356;48.460;11.450;2023-07-22T02:44:04;13.50;76.30
38592;DHT22;24356;48.460;11.450;2023-07-22T02:46:30;13.40;76.40
38592;DHT22;24356;48.460;11.450;2023-07-22T02:48:57;13.40;76.40
38592;DHT22;24356;48.460;11.450;2023-07-22T02:51:23;13.40;76.40
38592;DHT22;24356;48.460;11.450;2023-07-22T02:53:48;13.40;76.40
38592;DHT22;24356;48.460;11.450;2023-07-22T02:56:15;13.40;76.40
38592;DHT22;24356;48.460;11.450;2023-07-22T02:58:40;13.30;76.50
38592;DHT22;24356;48.460;11.450;2023-07-22T03:01:07;13.30;76.50
38592;DHT22;24356;48.460;11.450;2023-07-22T03:03:36;13.30;76.50
38592;DHT22;24356;48.460;11.450;2023-07-22T03:06:02;13.30;76.50
38592;DHT22;24356;48.460;11.450;2023-07-22T03:08:28;13.20;76.50
38592;DHT22;24356;48.460;11.450;2023-07-22T03:10:54;13.20;76.60
38592;DHT22;24356;48.460;11.450;2023-07-22T03:13:21;13.20;76.60
38592;DHT22;24356;48.460;11.450;2023-07-22T03:15:47;13.20;76.60
38592;DHT22;24356;48.460;11.450;2023-07-22T03:18:12;13.20;76.60
38592;DHT22;24356;48.460;11.450;2023-07-22T03:20:39;13.10;76.60
38592;DHT22;24356;48.460;11.450;2023-07-22T03:23:05;13.10;76.60
38592;DHT22;24356;48.460;11.450;2023-07-22T03:25:32;13.10;76.60
38592;DHT22;24356;48.460;11.450;2023-07-22T03:28:02;13.10;76.60
38592;DHT22;24356;48.460;11.450;2023-07-22T03:30:28;13.00;76.60
38592;DHT22;24356;48.460;11.450;2023-07-22T03:32:54;13.00;76.60
38592;DHT22;24356;48.460;11.450;2023-07-22T03:35:19;13.00;76.70
38592;DHT22;24356;48.460;11.450;2023-07-22T03:37:45;13.00;76.70
38592;DHT22;24356;48.460;11.450;2023-07-22T03:40:11;13.00;76.70
38592;DHT22;24356;48.460;11.450;2023-07-22T03:42:49;13.00;76.70
38592;DHT22;24356;48.460;11.450;2023-07-22T03:45:16;12.90;76.70
38592;DHT22;24356;48.460;11.450;2023-07-22T03:47:45;12.90;76.90
38592;DHT22;24356;48.460;11.450;2023-07-22T03:50:11;12.90;76.80
38592;DHT22;24356;48.460;11.450;2023-07-22T03:52:37;12.90;76.80
38592;DHT22;24356;48.460;11.450;2023-07-22T03:55:03;12.80;76.80
38592;DHT22;24356;48.460;11.450;2023-07-22T03:57:30;12.80;77.00
38592;DHT22;24356;48.460;11.450;2023-07-22T03:59:56;12.80;77.00
38592;DHT22;24356;48.460;11.450;2023-07-22T04:02:22;12.80;77.00
38592;DHT22;24356;48.460;11.450;2023-07-22T04:04:47;12.80;77.10
38592;DHT22;24356;48.460;11.450;2023-07-22T04:07:13;12.80;77.00
38592;DHT22;24356;48.460;11.450;2023-07-22T04:09:39;12.80;77.10
38592;DHT22;24356;48.460;11.450;2023-07-22T04:12:06;12.80;77.20
38592;DHT22;24356;48.460;11.450;2023-07-22T04:14:32;12.80;77.20
38592;DHT22;24356;48.460;11.450;2023-07-22T04:16:58;12.80;77.20
38592;DHT22;24356;48.460;11.450;2023-07-22T04:19:24;12.80;77.20
38592;DHT22;24356;48.460;11.450;2023-07-22T04:21:49;12.80;77.10
38592;DHT22;24356;48.460;11.450;2023-07-22T04:24:15;12.80;77.30
38592;DHT22;24356;48.460;11.450;2023-07-22T04:26:44;12.80;77.20
38592;DHT22;24356;48.460;11.450;2023-07-22T04:29:10;12.80;77.30
38592;DHT22;24356;48.460;11.450;2023-07-22T04:31:37;12.90;77.20
38592;DHT22;24356;48.460;11.450;2023-07-22T04:34:03;12.90;77.20
38592;DHT22;24356;48.460;11.450;2023-07-22T04:36:29;12.90;77.20
38592;DHT22;24356;48.460;11.450;2023-07-22T04:38:55;12.90;77.30
38592;DHT22;24356;48.460;11.450;2023-07-22T04:41:20;12.90;77.20
38592;DHT22;24356;48.460;11.450;2023-07-22T04:43:46;12.90;77.40
38592;DHT22;24356;48.460;11.450;2023-07-22T04:46:13;13.00;77.20
38592;DHT22;24356;48.460;11.450;2023-07-22T04:48:38;13.00;77.20
38592;DHT22;24356;48.460;11.450;2023-07-22T04:51:04;13.00;77.50
38592;DHT22;24356;48.460;11.450;2023-07-22T04:53:30;13.00;77.40
38592;DHT22;24356;48.460;11.450;2023-07-22T04:55:55;13.00;77.50
38592;DHT22;24356;48.460;11.450;2023-07-22T04:58:21;13.10;77.40
38592;DHT22;24356;48.460;11.450;2023-07-22T05:00:47;13.10;77.50
38592;DHT22;24356;48.460;11.450;2023-07-22T05:03:13;13.10;77.20
38592;DHT22;24356;48.460;11.450;2023-07-22T05:05:39;13.10;77.40
38592;DHT22;24356;48.460;11.450;2023-07-22T05:08:05;13.20;77.30
38592;DHT22;24356;48.460;11.450;2023-07-22T05:10:33;13.20;77.20
38592;DHT22;24356;48.460;11.450;2023-07-22T05:13:00;13.20;77.30
38592;DHT22;24356;48.460;11.450;2023-07-22T05:15:25;13.30;77.20
38592;DHT22;24356;48.460;11.450;2023-07-22T05:17:51;13.30;77.20
38592;DHT22;24356;48.460;11.450;2023-07-22T05:20:17;13.30;77.50
38592;DHT22;24356;48.460;11.450;2023-07-22T05:22:43;13.40;77.10
38592;DHT22;24356;48.460;11.450;2023-07-22T05:25:08;13.40;77.40
38592;DHT22;24356;48.460;11.450;2023-07-22T05:27:35;13.40;77.20
38592;DHT22;24356;48.460;11.450;2023-07-22T05:30:00;13.40;77.30
38592;DHT22;24356;48.460;11.450;2023-07-22T05:32:28;13.50;77.10
38592;DHT22;24356;48.460;11.450;2023-07-22T05:34:55;13.50;79.20
38592;DHT22;24356;48.460;11.450;2023-07-22T05:37:23;13.50;79.00
38592;DHT22;24356;48.460;11.450;2023-07-22T05:39:48;13.50;80.10
38592;DHT22;24356;48.460;11.450;2023-07-22T05:42:14;13.60;79.90
38592;DHT22;24356;48.460;11.450;2023-07-22T05:44:40;13.60;80.00
38592;DHT22;24356;48.460;11.450;2023-07-22T05:47:06;13.60;79.90
38592;DHT22;24356;48.460;11.450;2023-07-22T05:49:32;13.70;79.10
38592;DHT22;24356;48.460;11.450;2023-07-22T05:51:57;13.70;78.80
38592;DHT22;24356;48.460;11.450;2023-07-22T05:54:23;13.80;77.80
38592;DHT22;24356;48.460;11.450;2023-07-22T05:56:48;13.80;79.10
38592;DHT22;24356;48.460;11.450;2023-07-22T05:59:14;13.80;81.10
38592;DHT22;24356;48.460;11.450;2023-07-22T06:01:40;13.90;81.30
38592;DHT22;24356;48.460;11.450;2023-07-22T06:04:06;14.00;79.30
38592;DHT22;24356;48.460;11.450;2023-07-22T06:06:31;14.10;79.90
38592;DHT22;24356;48.460;11.450;2023-07-22T06:08:57;14.10;79.40
38592;DHT22;24356;48.460;11.450;2023-07-22T06:11:23;14.20;79.50
38592;DHT22;24356;48.460;11.450;2023-07-22T06:13:48;14.20;80.80
38592;DHT22;24356;48.460;11.450;2023-07-22T06:16:14;14.30;80.30
38592;DHT22;24356;48.460;11.450;2023-07-22T06:18:39;14.40;79.90
38592;DHT22;24356;48.460;11.450;2023-07-22T06:21:05;14.50;81.00
38592;DHT22;24356;48.460;11.450;2023-07-22T06:23:31;14.50;80.70
38592;DHT22;24356;48.460;11.450;2023-07-22T06:25:57;14.60;79.30
38592;DHT22;24356;48.460;11.450;2023-07-22T06:28:23;14.70;78.60
38592;DHT22;24356;48.460;11.450;2023-07-22T06:30:48;14.70;78.90
38592;DHT22;24356;48.460;11.450;2023-07-22T06:33:14;14.80;78.80
38592;DHT22;24356;48.460;11.450;2023-07-22T06:35:40;14.80;78.10
38592;DHT22;24356;48.460;11.450;2023-07-22T06:38:05;14.90;78.50
38592;DHT22;24356;48.460;11.450;2023-07-22T06:40:31;15.00;77.90
38592;DHT22;24356;48.460;11.450;2023-07-22T06:42:56;15.00;77.70
38592;DHT22;24356;48.460;11.450;2023-07-22T06:45:23;15.10;77.40
38592;DHT22;24356;48.460;11.450;2023-07-22T06:47:49;15.20;77.10
38592;DHT22;24356;48.460;11.450;2023-07-22T06:50:15;15.20;77.40
38592;DHT22;24356;48.460;11.450;2023-07-22T06:52:40;15.30;78.00
38592;DHT22;24356;48.460;11.450;2023-07-22T06:55:06;15.40;78.00
38592;DHT22;24356;48.460;11.450;2023-07-22T06:57:33;15.50;77.80
38592;DHT22;24356;48.460;11.450;2023-07-22T06:59:58;15.60;77.80
38592;DHT22;24356;48.460;11.450;2023-07-22T07:02:24;15.70;77.80
38592;DHT22;24356;48.460;11.450;2023-07-22T07:04:50;15.80;77.70
38592;DHT22;24356;48.460;11.450;2023-07-22T07:07:16;15.90;77.90
38592;DHT22;24356;48.460;11.450;2023-07-22T07:09:42;16.00;78.30
38592;DHT22;24356;48.460;11.450;2023-07-22T07:12:08;16.20;78.00
38592;DHT22;24356;48.460;11.450;2023-07-22T07:14:34;16.30;78.30
38592;DHT22;24356;48.460;11.450;2023-07-22T07:17:01;16.40;77.80
38592;DHT22;24356;48.460;11.450;2023-07-22T07:19:27;16.60;77.30
38592;DHT22;24356;48.460;11.450;2023-07-22T07:21:54;16.70;76.80
38592;DHT22;24356;48.460;11.450;2023-07-22T07:24:22;16.90;77.00
38592;DHT22;24356;48.460;11.450;2023-07-22T07:26:48;17.00;77.00
38592;DHT22;24356;48.460;11.450;2023-07-22T07:29:14;17.10;77.10
38592;DHT22;24356;48.460;11.450;2023-07-22T07:31:40;17.20;77.30
38592;DHT22;24356;48.460;11.450;2023-07-22T07:34:05;17.30;77.10
38592;DHT22;24356;48.460;11.450;2023-07-22T07:36:34;17.40;76.70
38592;DHT22;24356;48.460;11.450;2023-07-22T07:39:00;17.60;76.60
38592;DHT22;24356;48.460;11.450;2023-07-22T07:41:25;17.70;76.50
38592;DHT22;24356;48.460;11.450;2023-07-22T07:43:51;17.80;76.40
38592;DHT22;24356;48.460;11.450;2023-07-22T07:46:27;17.90;76.70
38592;DHT22;24356;48.460;11.450;2023-07-22T07:49:00;18.10;76.40
38592;DHT22;24356;48.460;11.450;2023-07-22T07:51:31;18.30;75.50
38592;DHT22;24356;48.460;11.450;2023-07-22T07:53:58;18.50;75.60
38592;DHT22;24356;48.460;11.450;2023-07-22T07:56:25;18.60;74.10
38592;DHT22;24356;48.460;11.450;2023-07-22T07:58:54;18.80;74.40
38592;DHT22;24356;48.460;11.450;2023-07-22T08:01:19;18.90;74.20
38592;DHT22;24356;48.460;11.450;2023-07-22T08:03:46;19.00;73.90
38592;DHT22;24356;48.460;11.450;2023-07-22T08:06:12;19.10;73.30
38592;DHT22;24356;48.460;11.450;2023-07-22T08:08:38;19.20;73.00
38592;DHT22;24356;48.460;11.450;2023-07-22T08:11:13;19.30;73.20
38592;DHT22;24356;48.460;11.450;2023-07-22T08:13:41;19.40;72.70
38592;DHT22;24356;48.460;11.450;2023-07-22T08:16:09;19.60;72.10
38592;DHT22;24356;48.460;11.450;2023-07-22T08:18:36;19.70;71.60
38592;DHT22;24356;48.460;11.450;2023-07-22T08:21:06;19.80;70.40
38592;DHT22;24356;48.460;11.450;2023-07-22T08:23:33;19.80;70.00
38592;DHT22;24356;48.460;11.450;2023-07-22T08:25:58;19.80;68.40
38592;DHT22;24356;48.460;11.450;2023-07-22T08:28:24;19.80;69.00
38592;DHT22;24356;48.460;11.450;2023-07-22T08:30:50;19.90;68.80
38592;DHT22;24356;48.460;11.450;2023-07-22T08:33:19;20.00;69.30
38592;DHT22;24356;48.460;11.450;2023-07-22T08:35:44;20.10;68.90
38592;DHT22;24356;48.460;11.450;2023-07-22T08:38:12;20.10;67.30
38592;DHT22;24356;48.460;11.450;2023-07-22T08:40:41;20.20;67.90
38592;DHT22;24356;48.460;11.450;2023-07-22T08:43:11;20.30;66.40
38592;DHT22;24356;48.460;11.450;2023-07-22T08:45:38;20.30;65.80
38592;DHT22;24356;48.460;11.450;2023-07-22T08:48:06;20.40;66.90
38592;DHT22;24356;48.460;11.450;2023-07-22T08:50:54;20.50;68.30
38592;DHT22;24356;48.460;11.450;2023-07-22T08:53:20;20.60;62.50
38592;DHT22;24356;48.460;11.450;2023-07-22T08:55:49;20.70;64.90
38592;DHT22;24356;48.460;11.450;2023-07-22T08:58:15;20.90;65.30
38592;DHT22;24356;48.460;11.450;2023-07-22T09:00:42;21.00;64.10
38592;DHT22;24356;48.460;11.450;2023-07-22T09:03:08;21.10;64.40
38592;DHT22;24356;48.460;11.450;2023-07-22T09:05:35;21.20;64.30
38592;DHT22;24356;48.460;11.450;2023-07-22T09:08:03;21.40;64.00
38592;DHT22;24356;48.460;11.450;2023-07-22T09:10:29;21.50;63.30
38592;DHT22;24356;48.460;11.450;2023-07-22T09:12:56;21.60;63.20
38592;DHT22;24356;48.460;11.450;2023-07-22T09:15:22;21.70;65.00
38592;DHT22;24356;48.460;11.450;2023-07-22T09:17:49;21.80;63.40
38592;DHT22;24356;48.460;11.450;2023-07-22T09:20:17;21.90;63.30
38592;DHT22;24356;48.460;11.450;2023-07-22T09:22:46;22.00;63.10
38592;DHT22;24356;48.460;11.450;2023-07-22T09:27:40;22.30;63.90
38592;DHT22;24356;48.460;11.450;2023-07-22T09:30:24;22.40;63.80
38592;DHT22;24356;48.460;11.450;2023-07-22T09:32:51;22.60;61.20
38592;DHT22;24356;48.460;11.450;2023-07-22T09:35:18;22.60;62.20
38592;DHT22;24356;48.460;11.450;2023-07-22T09:37:44;22.90;65.80
38592;DHT22;24356;48.460;11.450;2023-07-22T09:40:17;23.20;65.10
38592;DHT22;24356;48.460;11.450;2023-07-22T09:42:48;23.60;65.00
38592;DHT22;24356;48.460;11.450;2023-07-22T09:45:13;23.90;64.80
38592;DHT22;24356;48.460;11.450;2023-07-22T09:47:44;24.10;65.50
38592;DHT22;24356;48.460;11.450;2023-07-22T09:50:15;24.30;66.50
38592;DHT22;24356;48.460;11.450;2023-07-22T09:52:49;24.50;65.90
38592;DHT22;24356;48.460;11.450;2023-07-22T09:55:18;24.70;64.80
38592;DHT22;24356;48.460;11.450;2023-07-22T09:57:47;24.90;64.10
38592;DHT22;24356;48.460;11.450;2023-07-22T10:00:14;25.00;64.80
38592;DHT22;24356;48.460;11.450;2023-07-22T10:02:42;25.00;63.70
38592;DHT22;24356;48.460;11.450;2023-07-22T10:05:15;25.00;64.30
38592;DHT22;24356;48.460;11.450;2023-07-22T10:07:48;25.00;64.80
38592;DHT22;24356;48.460;11.450;2023-07-22T10:10:17;24.70;59.90
38592;DHT22;24356;48.460;11.450;2023-07-22T10:12:43;24.40;58.00
38592;DHT22;24356;48.460;11.450;2023-07-22T10:15:10;24.30;58.80
38592;DHT22;24356;48.460;11.450;2023-07-22T10:17:38;24.30;58.00
38592;DHT22;24356;48.460;11.450;2023-07-22T10:20:06;24.50;59.70
38592;DHT22;24356;48.460;11.450;2023-07-22T10:22:37;24.90;59.30
38592;DHT22;24356;48.460;11.450;2023-07-22T10:25:04;25.20;59.80
38592;DHT22;24356;48.460;11.450;2023-07-22T10:27:32;25.30;59.10
38592;DHT22;24356;48.460;11.450;2023-07-22T10:29:58;25.40;59.40
38592;DHT22;24356;48.460;11.450;2023-07-22T10:32:24;25.50;59.60
38592;DHT22;24356;48.460;11.450;2023-07-22T10:34:50;25.60;60.00
38592;DHT22;24356;48.460;11.450;2023-07-22T10:37:18;25.70;60.00
38592;DHT22;24356;48.460;11.450;2023-07-22T10:39:44;25.80;61.10
38592;DHT22;24356;48.460;11.450;2023-07-22T10:42:24;25.90;61.20
38592;DHT22;24356;48.460;11.450;2023-07-22T10:44:49;26.00;60.30
38592;DHT22;24356;48.460;11.450;2023-07-22T10:47:31;26.10;60.50
38592;DHT22;24356;48.460;11.450;2023-07-22T10:50:06;26.30;59.90
38592;DHT22;24356;48.460;11.450;2023-07-22T10:52:41;26.40;59.70
38592;DHT22;24356;48.460;11.450;2023-07-22T10:55:17;26.60;59.50
38592;DHT22;24356;48.460;11.450;2023-07-22T10:57:52;26.70;59.90
38592;DHT22;24356;48.460;11.450;2023-07-22T11:00:19;26.80;59.40
38592;DHT22;24356;48.460;11.450;2023-07-22T11:05:53;27.00;60.30
38592;DHT22;24356;48.460;11.450;2023-07-22T11:08:40;27.10;59.50
38592;DHT22;24356;48.460;11.450;2023-07-22T11:11:06;27.20;59.70
38592;DHT22;24356;48.460;11.450;2023-07-22T11:13:38;27.20;58.40
38592;DHT22;24356;48.460;11.450;2023-07-22T11:16:08;27.20;57.80
38592;DHT22;24356;48.460;11.450;2023-07-22T11:18:41;27.20;58.10
38592;DHT22;24356;48.460;11.450;2023-07-22T11:21:12;27.10;58.00
38592;DHT22;24356;48.460;11.450;2023-07-22T11:23:37;27.10;58.00
38592;DHT22;24356;48.460;11.450;2023-07-22T11:26:04;27.10;57.80
38592;DHT22;24356;48.460;11.450;2023-07-22T11:28:31;27.20;58.10
38592;DHT22;24356;48.460;11.450;2023-07-22T11:30:57;27.30;58.10
38592;DHT22;24356;48.460;11.450;2023-07-22T11:33:25;27.40;57.70
38592;DHT22;24356;48.460;11.450;2023-07-22T11:35:51;27.50;58.20
38592;DHT22;24356;48.460;11.450;2023-07-22T11:38:17;27.60;58.40
38592;DHT22;24356;48.460;11.450;2023-07-22T11:40:42;27.70;57.10
38592;DHT22;24356;48.460;11.450;2023-07-22T11:43:08;27.70;56.90
38592;DHT22;24356;48.460;11.450;2023-07-22T11:45:34;27.70;56.90
38592;DHT22;24356;48.460;11.450;2023-07-22T11:48:09;27.60;56.30
38592;DHT22;24356;48.460;11.450;2023-07-22T11:50:35;27.60;56.30
38592;DHT22;24356;48.460;11.450;2023-07-22T11:53:01;27.50;55.90
38592;DHT22;24356;48.460;11.450;2023-07-22T11:55:29;27.40;56.40
38592;DHT22;24356;48.460;11.450;2023-07-22T11:57:54;27.40;55.90
38592;DHT22;24356;48.460;11.450;2023-07-22T12:00:21;27.40;55.60
38592;DHT22;24356;48.460;11.450;2023-07-22T12:02:47;27.40;55.80
38592;DHT22;24356;48.460;11.450;2023-07-22T12:05:21;27.50;55.40
38592;DHT22;24356;48.460;11.450;2023-07-22T12:07:47;27.50;55.40
38592;DHT22;24356;48.460;11.450;2023-07-22T12:10:12;27.50;55.50
38592;DHT22;24356;48.460;11.450;2023-07-22T12:12:43;27.60;55.40
38592;DHT22;24356;48.460;11.450;2023-07-22T12:15:18;27.60;55.00
38592;DHT22;24356;48.460;11.450;2023-07-22T12:17:58;27.60;55.00
38592;DHT22;24356;48.460;11.450;2023-07-22T12:20:25;27.60;55.10
38592;DHT22;24356;48.460;11.450;2023-07-22T12:22:52;27.70;55.40
38592;DHT22;24356;48.460;11.450;2023-07-22T12:25:18;27.80;55.40
38592;DHT22;24356;48.460;11.450;2023-07-22T12:27:44;27.90;55.60
38592;DHT22;24356;48.460;11.450;2023-07-22T12:30:10;27.90;54.60
38592;DHT22;24356;48.460;11.450;2023-07-22T12:32:36;28.00;54.70
38592;DHT22;24356;48.460;11.450;2023-07-22T12:35:01;28.00;54.80
38592;DHT22;24356;48.460;11.450;2023-07-22T12:37:29;28.10;54.90
38592;DHT22;24356;48.460;11.450;2023-07-22T12:39:54;28.20;54.90
38592;DHT22;24356;48.460;11.450;2023-07-22T12:42:20;28.30;54.80
38592;DHT22;24356;48.460;11.450;2023-07-22T12:44:45;28.30;55.00
38592;DHT22;24356;48.460;11.450;2023-07-22T12:47:11;28.40;55.20
38592;DHT22;24356;48.460;11.450;2023-07-22T12:49:37;28.50;55.00
38592;DHT22;24356;48.460;11.450;2023-07-22T12:52:03;28.60;55.10
38592;DHT22;24356;48.460;11.450;2023-07-22T12:54:33;28.70;55.10
38592;DHT22;24356;48.460;11.450;2023-07-22T12:56:58;28.80;55.40
38592;DHT22;24356;48.460;11.450;2023-07-22T12:59:25;28.80;55.40
38592;DHT22;24356;48.460;11.450;2023-07-22T13:01:51;28.90;55.60
38592;DHT22;24356;48.460;11.450;2023-07-22T13:04:16;28.90;55.60
38592;DHT22;24356;48.460;11.450;2023-07-22T13:06:42;29.00;55.60
38592;DHT22;24356;48.460;11.450;2023-07-22T13:09:07;29.10;55.80
38592;DHT22;24356;48.460;11.450;2023-07-22T13:11:34;29.20;55.70
38592;DHT22;24356;48.460;11.450;2023-07-22T13:14:01;29.20;56.00
38592;DHT22;24356;48.460;11.450;2023-07-22T13:16:26;29.30;56.00
38592;DHT22;24356;48.460;11.450;2023-07-22T13:18:52;29.40;56.10
38592;DHT22;24356;48.460;11.450;2023-07-22T13:21:17;29.40;55.90
38592;DHT22;24356;48.460;11.450;2023-07-22T13:23:43;29.40;55.70
38592;DHT22;24356;48.460;11.450;2023-07-22T13:26:08;29.30;55.60
38592;DHT22;24356;48.460;11.450;2023-07-22T13:28:34;29.20;55.40
38592;DHT22;24356;48.460;11.450;2023-07-22T13:31:00;29.10;55.20
38592;DHT22;24356;48.460;11.450;2023-07-22T13:33:26;29.00;55.00
38592;DHT22;24356;48.460;11.450;2023-07-22T13:35:52;28.90;55.70
38592;DHT22;24356;48.460;11.450;2023-07-22T13:38:18;28.90;55.90
38592;DHT22;24356;48.460;11.450;2023-07-22T13:40:44;29.00;56.50
38592;DHT22;24356;48.460;11.450;2023-07-22T13:43:09;29.00;56.50
38592;DHT22;24356;48.460;11.450;2023-07-22T13:45:36;29.20;56.50
38592;DHT22;24356;48.460;11.450;2023-07-22T13:48:02;29.20;55.70
38592;DHT22;24356;48.460;11.450;2023-07-22T13:50:28;29.10;55.40
38592;DHT22;24356;48.460;11.450;2023-07-22T13:52:53;29.00;55.40
38592;DHT22;24356;48.460;11.450;2023-07-22T13:55:19;29.00;55.80
38592;DHT22;24356;48.460;11.450;2023-07-22T13:57:45;29.00;56.20
38592;DHT22;24356;48.460;11.450;2023-07-22T14:00:11;29.00;56.30
38592;DHT22;24356;48.460;11.450;2023-07-22T14:02:37;29.00;56.60
38592;DHT22;24356;48.460;11.450;2023-07-22T14:05:03;29.10;56.70
38592;DHT22;24356;48.460;11.450;2023-07-22T14:07:29;29.10;57.10
38592;DHT22;24356;48.460;11.450;2023-07-22T14:09:55;29.20;57.90
38592;DHT22;24356;48.460;11.450;2023-07-22T14:12:20;29.30;58.20
38592;DHT22;24356;48.460;11.450;2023-07-22T14:14:46;29.40;57.90
38592;DHT22;24356;48.460;11.450;2023-07-22T14:17:12;29.60;58.00
38592;DHT22;24356;48.460;11.450;2023-07-22T14:19:37;29.70;57.40
38592;DHT22;24356;48.460;11.450;2023-07-22T14:22:03;29.90;56.60
38592;DHT22;24356;48.460;11.450;2023-07-22T14:24:29;30.00;56.70
38592;DHT22;24356;48.460;11.450;2023-07-22T14:26:55;30.10;55.80
38592;DHT22;24356;48.460;11.450;2023-07-22T14:29:21;30.20;56.70
38592;DHT22;24356;48.460;11.450;2023-07-22T14:31:47;30.30;57.20
38592;DHT22;24356;48.460;11.450;2023-07-22T14:34:12;30.40;57.20
38592;DHT22;24356;48.460;11.450;2023-07-22T14:36:38;30.40;57.10
38592;DHT22;24356;48.460;11.450;2023-07-22T14:39:04;30.50;56.80
38592;DHT22;24356;48.460;11.450;2023-07-22T14:41:30;30.50;56.90
38592;DHT22;24356;48.460;11.450;2023-07-22T14:43:56;30.60;57.60
38592;DHT22;24356;48.460;11.450;2023-07-22T14:46:21;30.70;57.90
38592;DHT22;24356;48.460;11.450;2023-07-22T14:48:47;30.70;58.20
38592;DHT22;24356;48.460;11.450;2023-07-22T14:51:13;30.80;57.90
38592;DHT22;24356;48.460;11.450;2023-07-22T14:53:39;30.70;57.70
38592;DHT22;24356;48.460;11.450;2023-07-22T14:56:04;30.70;57.50
38592;DHT22;24356;48.460;11.450;2023-07-22T14:58:32;30.70;57.70
38592;DHT22;24356;48.460;11.450;2023-07-22T15:00:57;30.60;57.80
38592;DHT22;24356;48.460;11.450;2023-07-22T15:03:23;30.60;57.90
38592;DHT22;24356;48.460;11.450;2023-07-22T15:05:49;30.60;57.30
38592;DHT22;24356;48.460;11.450;2023-07-22T15:08:14;30.70;57.10
38592;DHT22;24356;48.460;11.450;2023-07-22T15:10:40;30.80;55.80
38592;DHT22;24356;48.460;11.450;2023-07-22T15:13:06;30.90;56.40
38592;DHT22;24356;48.460;11.450;2023-07-22T15:15:31;30.90;55.80
38592;DHT22;24356;48.460;11.450;2023-07-22T15:17:57;30.90;55.20